createdAt,value
2022-09-12T00:00:01.407Z,14.68
2022-09-12T00:01:01.869Z,14.68
2022-09-12T00:02:01.705Z,14.70
2022-09-12T00:03:01.647Z,14.68
2022-09-12T00:04:01.887Z,14.66
2022-09-12T00:05:01.587Z,14.62
2022-09-12T00:06:01.755Z,14.59
2022-09-12T00:07:01.577Z,14.53
2022-09-12T00:08:01.628Z,14.51
2022-09-12T00:09:01.651Z,14.48
2022-09-12T00:10:02.194Z,14.45
2022-09-12T00:11:01.746Z,14.48
2022-09-12T00:12:02.105Z,14.45
2022-09-12T00:13:01.412Z,14.44
2022-09-12T00:14:01.415Z,14.44
2022-09-12T00:15:01.671Z,14.43
2022-09-12T00:16:01.701Z,14.43
2022-09-12T00:17:01.571Z,14.44
2022-09-12T00:18:01.228Z,14.45
2022-09-12T00:19:01.398Z,14.52
2022-09-12T00:20:01.611Z,14.56
2022-09-12T00:21:01.617Z,14.56
2022-09-12T00:22:01.432Z,14.52
2022-09-12T00:23:01.075Z,14.49
2022-09-12T00:24:01.112Z,14.44
2022-09-12T00:25:01.119Z,14.44
2022-09-12T00:26:01.049Z,14.44
2022-09-12T00:27:01.043Z,14.40
2022-09-12T00:28:01.054Z,14.44
2022-09-12T00:29:01.089Z,14.48
2022-09-12T00:30:01.063Z,14.45
2022-09-12T00:31:01.000Z,14.45
2022-09-12T00:32:01.034Z,14.44
2022-09-12T00:33:01.882Z,14.49
2022-09-12T00:34:01.159Z,14.51
2022-09-12T00:35:01.062Z,14.43
2022-09-12T00:36:00.937Z,14.40
2022-09-12T00:37:00.966Z,14.37
2022-09-12T00:38:00.929Z,14.38
2022-09-12T00:39:00.983Z,14.38
2022-09-12T00:40:01.021Z,14.37
2022-09-12T00:41:00.953Z,14.36
2022-09-12T00:42:00.888Z,14.34
2022-09-12T00:43:00.862Z,14.30
2022-09-12T00:44:00.879Z,14.26
2022-09-12T00:45:02.421Z,14.23
2022-09-12T00:46:00.933Z,14.19
2022-09-12T00:47:00.819Z,14.15
2022-09-12T00:48:00.821Z,14.15
2022-09-12T00:49:00.836Z,14.20
2022-09-12T00:50:00.974Z,14.23
2022-09-12T00:51:00.766Z,14.20
2022-09-12T00:52:00.805Z,14.26
2022-09-12T00:53:00.773Z,14.31
2022-09-12T00:54:00.790Z,14.37
2022-09-12T00:55:00.769Z,14.40
2022-09-12T00:56:00.798Z,14.38
2022-09-12T00:57:00.806Z,14.37
2022-09-12T00:58:00.820Z,14.34
2022-09-12T00:59:00.685Z,14.30
2022-09-12T01:00:00.692Z,14.28
2022-09-12T01:01:00.918Z,14.23
2022-09-12T01:02:00.816Z,14.22
2022-09-12T01:03:00.650Z,14.28
2022-09-12T01:04:00.679Z,14.36
2022-09-12T01:05:00.615Z,14.37
2022-09-12T01:06:00.623Z,14.33
2022-09-12T01:07:00.582Z,14.30
2022-09-12T01:08:00.591Z,14.25
2022-09-12T01:09:00.619Z,14.30
2022-09-12T01:10:00.714Z,14.33
2022-09-12T01:11:00.560Z,14.28
2022-09-12T01:12:00.645Z,14.23
2022-09-12T01:13:00.534Z,14.19
2022-09-12T01:14:00.595Z,14.19
2022-09-12T01:15:00.496Z,14.25
2022-09-12T01:16:00.529Z,14.28
2022-09-12T01:17:00.530Z,14.28
2022-09-12T01:18:00.493Z,14.23
2022-09-12T01:19:01.386Z,14.16
2022-09-12T01:20:00.469Z,14.11
2022-09-12T01:21:00.459Z,14.08
2022-09-12T01:22:00.475Z,14.15
2022-09-12T01:23:00.476Z,14.08
2022-09-12T01:24:00.446Z,14.05
2022-09-12T01:25:00.377Z,14.01
2022-09-12T01:26:00.424Z,14.00
2022-09-12T01:27:00.392Z,13.98
2022-09-12T01:28:00.447Z,14.03
2022-09-12T01:29:00.414Z,14.07
2022-09-12T01:30:00.373Z,14.08
2022-09-12T01:31:00.469Z,14.08
2022-09-12T01:32:00.485Z,14.07
2022-09-12T01:33:00.386Z,14.03
2022-09-12T01:34:00.606Z,14.03
2022-09-12T01:35:01.130Z,14.08
2022-09-12T01:36:00.538Z,14.16
2022-09-12T01:37:00.731Z,14.20
2022-09-12T01:38:00.327Z,14.26
2022-09-12T01:39:00.411Z,14.26
2022-09-12T01:40:00.702Z,14.26
2022-09-12T01:41:00.286Z,14.25
2022-09-12T01:42:00.391Z,14.30
2022-09-12T01:43:01.020Z,14.36
2022-09-12T01:44:00.471Z,14.36
2022-09-12T01:45:00.293Z,14.36
2022-09-12T01:46:00.269Z,14.37
2022-09-12T01:47:00.459Z,14.41
2022-09-12T01:48:00.410Z,14.45
2022-09-12T01:49:00.155Z,14.49
2022-09-12T01:50:00.120Z,14.51
2022-09-12T01:51:00.323Z,14.53
2022-09-12T01:52:00.238Z,14.51
2022-09-12T01:53:01.017Z,14.51
2022-09-12T01:54:00.412Z,14.51
2022-09-12T01:55:00.124Z,14.51
2022-09-12T01:56:00.024Z,14.51
2022-09-12T01:57:00.026Z,14.48
2022-09-12T01:58:00.054Z,14.48
2022-09-12T01:59:00.016Z,14.48
2022-09-12T02:00:00.001Z,14.51
2022-09-12T02:01:00.024Z,14.49
2022-09-12T02:02:00.028Z,14.52
2022-09-12T02:02:59.949Z,14.52
2022-09-12T02:03:59.970Z,14.52
2022-09-12T02:04:59.966Z,14.51
2022-09-12T02:05:59.923Z,14.51
2022-09-12T02:06:59.905Z,14.44
2022-09-12T02:07:59.896Z,14.40
2022-09-12T02:08:59.918Z,14.40
2022-09-12T02:09:59.941Z,14.41
2022-09-12T02:10:59.865Z,14.43
2022-09-12T02:11:59.905Z,14.43
2022-09-12T02:12:59.891Z,14.44
2022-09-12T02:13:59.843Z,14.45
2022-09-12T02:14:59.878Z,14.45
2022-09-12T02:15:59.912Z,14.44
2022-09-12T02:16:59.836Z,14.44
2022-09-12T02:17:59.844Z,14.44
2022-09-12T02:18:59.810Z,14.45
2022-09-12T02:19:59.763Z,14.45
2022-09-12T02:20:59.766Z,14.45
2022-09-12T02:21:59.799Z,14.44
2022-09-12T02:22:59.721Z,14.43
2022-09-12T02:23:59.706Z,14.43
2022-09-12T02:24:59.722Z,14.38
2022-09-12T02:25:59.714Z,14.38
2022-09-12T02:26:59.710Z,14.37
2022-09-12T02:27:59.753Z,14.34
2022-09-12T02:28:59.663Z,14.28
2022-09-12T02:29:59.662Z,14.23
2022-09-12T02:30:59.757Z,14.19
2022-09-12T02:31:59.630Z,14.11
2022-09-12T02:32:59.618Z,14.03
2022-09-12T02:33:59.650Z,14.00
2022-09-12T02:34:59.634Z,13.94
2022-09-12T02:35:59.590Z,13.95
2022-09-12T02:36:59.668Z,13.98
2022-09-12T02:37:59.574Z,13.94
2022-09-12T02:38:59.556Z,13.87
2022-09-12T02:39:59.582Z,13.83
2022-09-12T02:40:59.529Z,13.79
2022-09-12T02:41:59.530Z,13.76
2022-09-12T02:42:59.525Z,13.75
2022-09-12T02:43:59.490Z,13.70
2022-09-12T02:44:59.481Z,13.67
2022-09-12T02:45:59.535Z,13.70
2022-09-12T02:46:59.454Z,13.62
2022-09-12T02:47:59.444Z,13.60
2022-09-12T02:48:59.447Z,13.55
2022-09-12T02:49:59.494Z,13.52
2022-09-12T02:50:59.471Z,13.49
2022-09-12T02:51:59.448Z,13.47
2022-09-12T02:52:59.629Z,13.46
2022-09-12T02:53:59.859Z,13.46
2022-09-12T02:54:59.868Z,13.50
2022-09-12T02:55:59.698Z,13.58
2022-09-12T02:56:59.820Z,13.65
2022-09-12T02:57:59.892Z,13.78
2022-09-12T02:58:59.803Z,13.79
2022-09-12T02:59:59.765Z,13.76
2022-09-12T03:00:59.831Z,13.75
2022-09-12T03:01:59.963Z,13.70
2022-09-12T03:02:59.803Z,13.71
2022-09-12T03:03:59.803Z,13.65
2022-09-12T03:04:59.923Z,13.60
2022-09-12T03:05:59.712Z,13.54
2022-09-12T03:06:59.709Z,13.46
2022-09-12T03:07:59.735Z,13.43
2022-09-12T03:08:59.653Z,13.47
2022-09-12T03:09:59.940Z,13.57
2022-09-12T03:10:59.696Z,13.60
2022-09-12T03:11:59.574Z,13.57
2022-09-12T03:12:59.734Z,13.54
2022-09-12T03:13:59.480Z,13.52
2022-09-12T03:14:59.625Z,13.49
2022-09-12T03:15:59.160Z,13.46
2022-09-12T03:16:59.704Z,13.46
2022-09-12T03:17:59.515Z,13.42
2022-09-12T03:18:59.558Z,13.43
2022-09-12T03:19:59.526Z,13.40
2022-09-12T03:20:59.621Z,13.40
2022-09-12T03:21:59.155Z,13.40
2022-09-12T03:22:59.053Z,13.39
2022-09-12T03:23:59.066Z,13.39
2022-09-12T03:24:59.060Z,13.40
2022-09-12T03:25:59.038Z,13.50
2022-09-12T03:26:59.875Z,13.57
2022-09-12T03:27:59.046Z,13.58
2022-09-12T03:28:59.906Z,13.58
2022-09-12T03:29:59.045Z,13.57
2022-09-12T03:30:59.038Z,13.58
2022-09-12T03:31:58.975Z,13.61
2022-09-12T03:32:58.956Z,13.65
2022-09-12T03:33:59.008Z,13.68
2022-09-12T03:34:59.903Z,13.71
2022-09-12T03:35:58.965Z,13.73
2022-09-12T03:36:58.923Z,13.76
2022-09-12T03:37:58.901Z,13.79
2022-09-12T03:38:58.944Z,13.80
2022-09-12T03:39:59.052Z,13.79
2022-09-12T03:40:58.892Z,13.80
2022-09-12T03:41:58.857Z,13.80
2022-09-12T03:42:58.833Z,13.83
2022-09-12T03:43:58.849Z,13.85
2022-09-12T03:44:58.818Z,13.85
2022-09-12T03:45:58.938Z,13.85
2022-09-12T03:46:58.885Z,13.85
2022-09-12T03:47:58.882Z,13.85
2022-09-12T03:48:58.802Z,13.83
2022-09-12T03:49:58.869Z,13.86
2022-09-12T03:50:58.736Z,13.87
2022-09-12T03:51:58.802Z,13.89
2022-09-12T03:52:58.835Z,13.89
2022-09-12T03:53:58.849Z,13.94
2022-09-12T03:54:58.723Z,13.94
2022-09-12T03:55:58.695Z,13.93
2022-09-12T03:56:58.708Z,13.94
2022-09-12T03:57:58.774Z,13.97
2022-09-12T03:58:58.741Z,13.97
2022-09-12T03:59:58.639Z,14.00
2022-09-12T04:00:59.413Z,14.00
2022-09-12T04:01:58.679Z,14.01
2022-09-12T04:02:58.665Z,14.01
2022-09-12T04:03:58.732Z,14.01
2022-09-12T04:04:58.619Z,14.00
2022-09-12T04:06:01.550Z,14.00
2022-09-12T04:06:58.615Z,14.00
2022-09-12T04:07:58.652Z,13.98
2022-09-12T04:08:58.624Z,13.97
2022-09-12T04:09:58.582Z,13.97
2022-09-12T04:10:58.626Z,13.97
2022-09-12T04:11:58.572Z,13.95
2022-09-12T04:12:58.612Z,13.93
2022-09-12T04:13:59.379Z,13.93
2022-09-12T04:14:58.462Z,13.93
2022-09-12T04:15:58.521Z,13.91
2022-09-12T04:16:58.468Z,13.91
2022-09-12T04:18:02.448Z,13.89
2022-09-12T04:18:58.444Z,13.89
2022-09-12T04:19:58.421Z,13.87
2022-09-12T04:20:58.394Z,13.87
2022-09-12T04:21:58.429Z,13.87
2022-09-12T04:22:58.484Z,13.86
2022-09-12T04:23:58.446Z,13.85
2022-09-12T04:24:58.511Z,13.85
2022-09-12T04:25:58.364Z,13.83
2022-09-12T04:26:58.418Z,13.83
2022-09-12T04:27:58.449Z,13.85
2022-09-12T04:28:58.397Z,13.83
2022-09-12T04:29:58.359Z,13.82
2022-09-12T04:30:58.343Z,13.79
2022-09-12T04:31:58.354Z,13.79
2022-09-12T04:32:58.383Z,13.79
2022-09-12T04:33:58.343Z,13.76
2022-09-12T04:34:58.283Z,13.75
2022-09-12T04:35:58.247Z,13.73
2022-09-12T04:36:58.257Z,13.71
2022-09-12T04:37:58.260Z,13.71
2022-09-12T04:38:58.259Z,13.73
2022-09-12T04:39:58.347Z,13.73
2022-09-12T04:40:58.264Z,13.73
2022-09-12T04:41:58.333Z,13.71
2022-09-12T04:42:58.157Z,13.71
2022-09-12T04:43:58.142Z,13.70
2022-09-12T04:44:58.136Z,13.68
2022-09-12T04:45:58.213Z,13.65
2022-09-12T04:46:58.104Z,13.64
2022-09-12T04:47:58.086Z,13.65
2022-09-12T04:48:58.079Z,13.62
2022-09-12T04:49:58.107Z,13.64
2022-09-12T04:50:58.049Z,13.62
2022-09-12T04:51:58.147Z,13.62
2022-09-12T04:52:58.041Z,13.61
2022-09-12T04:53:58.060Z,13.60
2022-09-12T04:54:58.072Z,13.57
2022-09-12T04:55:58.046Z,13.57
2022-09-12T04:56:58.041Z,13.57
2022-09-12T04:57:58.092Z,13.55
2022-09-12T04:58:57.957Z,13.54
2022-09-12T04:59:57.976Z,13.54
2022-09-12T05:00:57.999Z,13.54
2022-09-12T05:01:59.473Z,13.52
2022-09-12T05:02:57.970Z,13.50
2022-09-12T05:03:58.009Z,13.49
2022-09-12T05:04:57.903Z,13.47
2022-09-12T05:05:57.893Z,13.45
2022-09-12T05:06:57.963Z,13.46
2022-09-12T05:07:57.928Z,13.45
2022-09-12T05:08:57.869Z,13.43
2022-09-12T05:09:57.927Z,13.45
2022-09-12T05:10:57.881Z,13.45
2022-09-12T05:12:05.798Z,13.43
2022-09-12T05:12:57.814Z,13.43
2022-09-12T05:13:58.717Z,13.45
2022-09-12T05:14:57.805Z,13.45
2022-09-12T05:15:57.827Z,13.45
2022-09-12T05:16:57.857Z,13.46
2022-09-12T05:17:57.786Z,13.46
2022-09-12T05:18:57.836Z,13.45
2022-09-12T05:19:57.786Z,13.45
2022-09-12T05:20:57.746Z,13.46
2022-09-12T05:21:57.817Z,13.46
2022-09-12T05:22:57.712Z,13.46
2022-09-12T05:23:57.820Z,13.47
2022-09-12T05:24:57.791Z,13.47
2022-09-12T05:25:57.860Z,13.47
2022-09-12T05:26:57.961Z,13.46
2022-09-12T05:27:57.785Z,13.46
2022-09-12T05:29:04.422Z,13.47
2022-09-12T05:30:03.629Z,13.49
2022-09-12T05:31:03.680Z,13.50
2022-09-12T05:31:57.607Z,13.50
2022-09-12T05:32:57.569Z,13.54
2022-09-12T05:33:57.722Z,13.55
2022-09-12T05:34:57.930Z,13.57
2022-09-12T05:35:57.921Z,13.57
2022-09-12T05:36:57.566Z,13.57
2022-09-12T05:37:57.570Z,13.61
2022-09-12T05:38:57.515Z,13.62
2022-09-12T05:39:57.668Z,13.62
2022-09-12T05:40:57.501Z,13.64
2022-09-12T05:41:57.599Z,13.65
2022-09-12T05:42:57.489Z,13.68
2022-09-12T05:43:57.472Z,13.70
2022-09-12T05:44:57.442Z,13.73
2022-09-12T05:45:57.549Z,13.76
2022-09-12T05:46:57.484Z,13.78
2022-09-12T05:47:57.416Z,13.80
2022-09-12T05:48:57.386Z,13.82
2022-09-12T05:49:57.451Z,13.85
2022-09-12T05:50:57.391Z,13.87
2022-09-12T05:51:57.484Z,13.91
2022-09-12T05:52:57.352Z,13.95
2022-09-12T05:53:57.358Z,14.00
2022-09-12T05:54:57.363Z,14.01
2022-09-12T05:55:57.371Z,14.05
2022-09-12T05:56:57.383Z,14.07
2022-09-12T05:57:57.402Z,14.11
2022-09-12T05:58:57.288Z,14.13
2022-09-12T05:59:57.331Z,14.16
2022-09-12T06:00:57.266Z,14.20
2022-09-12T06:01:57.369Z,14.25
2022-09-12T06:02:58.265Z,14.30
2022-09-12T06:03:57.265Z,14.34
2022-09-12T06:04:57.203Z,14.40
2022-09-12T06:05:57.235Z,14.45
2022-09-12T06:06:57.309Z,14.52
2022-09-12T06:07:57.245Z,14.56
2022-09-12T06:08:57.173Z,14.59
2022-09-12T06:09:57.209Z,14.66
2022-09-12T06:11:00.396Z,14.73
2022-09-12T06:11:57.256Z,14.79
2022-09-12T06:12:57.187Z,14.82
2022-09-12T06:13:57.177Z,14.86
2022-09-12T06:14:57.243Z,14.90
2022-09-12T06:15:57.202Z,14.93
2022-09-12T06:16:57.162Z,14.96
2022-09-12T06:17:57.247Z,15.00
2022-09-12T06:18:57.100Z,15.05
2022-09-12T06:19:57.052Z,15.07
2022-09-12T06:20:57.064Z,15.08
2022-09-12T06:21:57.108Z,15.10
2022-09-12T06:22:57.066Z,15.14
2022-09-12T06:23:57.001Z,15.17
2022-09-12T06:24:58.052Z,15.17
2022-09-12T06:25:56.997Z,15.18
2022-09-12T06:26:56.963Z,15.19
2022-09-12T06:27:57.039Z,15.18
2022-09-12T06:28:56.946Z,15.22
2022-09-12T06:29:56.949Z,15.23
2022-09-12T06:30:57.016Z,15.23
2022-09-12T06:31:56.911Z,15.27
2022-09-12T06:32:57.950Z,15.29
2022-09-12T06:33:56.987Z,15.29
2022-09-12T06:34:56.953Z,15.30
2022-09-12T06:35:56.867Z,15.30
2022-09-12T06:36:56.918Z,15.29
2022-09-12T06:37:56.914Z,15.33
2022-09-12T06:38:56.880Z,15.35
2022-09-12T06:39:56.972Z,15.37
2022-09-12T06:40:56.825Z,15.41
2022-09-12T06:41:56.842Z,15.43
2022-09-12T06:42:56.788Z,15.43
2022-09-12T06:43:58.453Z,15.45
2022-09-12T06:44:56.806Z,15.45
2022-09-12T06:45:56.960Z,15.45
2022-09-12T06:46:56.747Z,15.47
2022-09-12T06:47:56.875Z,15.47
2022-09-12T06:48:56.781Z,15.50
2022-09-12T06:49:56.760Z,15.50
2022-09-12T06:50:56.731Z,15.51
2022-09-12T06:51:56.768Z,15.52
2022-09-12T06:52:56.727Z,15.51
2022-09-12T06:53:56.693Z,15.51
2022-09-12T06:54:56.719Z,15.55
2022-09-12T06:55:56.712Z,15.59
2022-09-12T06:56:56.664Z,15.60
2022-09-12T06:57:56.728Z,15.63
2022-09-12T06:58:56.815Z,15.65
2022-09-12T06:59:56.999Z,15.65
2022-09-12T07:00:59.079Z,15.65
2022-09-12T07:01:56.753Z,15.65
2022-09-12T07:02:56.745Z,15.69
2022-09-12T07:03:56.969Z,15.70
2022-09-12T07:04:56.641Z,15.72
2022-09-12T07:05:56.657Z,15.76
2022-09-12T07:06:56.817Z,15.76
2022-09-12T07:07:57.445Z,15.78
2022-09-12T07:08:56.651Z,15.81
2022-09-12T07:09:56.873Z,15.83
2022-09-12T07:10:56.548Z,15.85
2022-09-12T07:11:56.682Z,15.90
2022-09-12T07:12:56.483Z,15.91
2022-09-12T07:13:56.756Z,15.94
2022-09-12T07:14:56.609Z,15.99
2022-09-12T07:15:56.473Z,16.00
2022-09-12T07:16:56.601Z,16.02
2022-09-12T07:17:56.574Z,16.05
2022-09-12T07:18:56.604Z,16.05
2022-09-12T07:19:56.533Z,16.09
2022-09-12T07:20:56.730Z,16.10
2022-09-12T07:21:58.767Z,16.09
2022-09-12T07:22:56.642Z,16.08
2022-09-12T07:23:56.578Z,16.12
2022-09-12T07:24:56.514Z,16.13
2022-09-12T07:25:56.503Z,16.21
2022-09-12T07:26:56.801Z,16.18
2022-09-12T07:27:56.601Z,16.22
2022-09-12T07:29:08.243Z,16.25
2022-09-12T07:29:56.829Z,16.29
2022-09-12T07:30:56.347Z,16.32
2022-09-12T07:31:56.533Z,16.39
2022-09-12T07:32:56.550Z,16.41
2022-09-12T07:33:56.637Z,16.43
2022-09-12T07:34:56.480Z,16.46
2022-09-12T07:35:56.219Z,16.54
2022-09-12T07:36:56.508Z,16.57
2022-09-12T07:37:56.576Z,16.59
2022-09-12T07:38:57.516Z,16.64
2022-09-12T07:39:56.549Z,16.65
2022-09-12T07:40:56.364Z,16.72
2022-09-12T07:41:56.231Z,16.76
2022-09-12T07:42:56.412Z,16.80
2022-09-12T07:43:56.180Z,16.83
2022-09-12T07:44:56.418Z,16.84
2022-09-12T07:45:56.391Z,16.89
2022-09-12T07:46:56.185Z,16.92
2022-09-12T07:47:56.177Z,16.94
2022-09-12T07:48:56.322Z,16.99
2022-09-12T07:49:56.316Z,17.04
2022-09-12T07:50:56.421Z,17.10
2022-09-12T07:51:56.259Z,17.16
2022-09-12T07:52:56.277Z,17.19
2022-09-12T07:53:56.162Z,17.22
2022-09-12T07:54:56.116Z,17.27
2022-09-12T07:55:56.028Z,17.28
2022-09-12T07:56:56.008Z,17.28
2022-09-12T07:57:56.066Z,17.31
2022-09-12T07:58:56.110Z,17.31
2022-09-12T07:59:56.024Z,17.32
2022-09-12T08:00:56.087Z,17.37
2022-09-12T08:01:55.939Z,17.37
2022-09-12T08:02:55.944Z,17.39
2022-09-12T08:03:56.269Z,17.41
2022-09-12T08:04:56.071Z,17.46
2022-09-12T08:05:56.071Z,17.49
2022-09-12T08:06:56.109Z,17.50
2022-09-12T08:07:57.763Z,17.54
2022-09-12T08:08:55.976Z,17.54
2022-09-12T08:09:56.021Z,17.59
2022-09-12T08:10:56.597Z,17.63
2022-09-12T08:11:56.013Z,17.68
2022-09-12T08:12:55.900Z,17.71
2022-09-12T08:13:56.327Z,17.72
2022-09-12T08:14:55.962Z,17.73
2022-09-12T08:15:56.189Z,17.76
2022-09-12T08:16:55.935Z,17.80
2022-09-12T08:17:55.952Z,17.84
2022-09-12T08:18:55.806Z,17.87
2022-09-12T08:19:55.905Z,17.88
2022-09-12T08:20:55.864Z,17.93
2022-09-12T08:21:56.635Z,17.91
2022-09-12T08:22:55.713Z,17.91
2022-09-12T08:23:56.068Z,17.90
2022-09-12T08:24:55.842Z,17.91
2022-09-12T08:25:55.919Z,17.90
2022-09-12T08:26:55.829Z,17.90
2022-09-12T08:27:55.946Z,17.90
2022-09-12T08:28:55.856Z,17.95
2022-09-12T08:29:55.864Z,18.02
2022-09-12T08:30:56.045Z,18.05
2022-09-12T08:31:57.384Z,18.05
2022-09-12T08:32:55.712Z,18.06
2022-09-12T08:33:55.707Z,18.08
2022-09-12T08:34:55.792Z,18.11
2022-09-12T08:35:55.760Z,18.11
2022-09-12T08:36:55.670Z,18.11
2022-09-12T08:37:55.774Z,18.12
2022-09-12T08:38:59.345Z,18.12
2022-09-12T08:39:56.387Z,18.12
2022-09-12T08:40:55.595Z,18.11
2022-09-12T08:41:55.525Z,18.11
2022-09-12T08:42:55.651Z,18.13
2022-09-12T08:43:56.956Z,18.12
2022-09-12T08:44:56.425Z,18.12
2022-09-12T08:45:55.727Z,18.11
2022-09-12T08:46:55.505Z,18.15
2022-09-12T08:47:55.631Z,18.21
2022-09-12T08:48:55.753Z,18.21
2022-09-12T08:49:55.664Z,18.23
2022-09-12T08:50:55.582Z,18.23
2022-09-12T08:51:55.854Z,18.21
2022-09-12T08:52:55.618Z,18.19
2022-09-12T08:53:55.489Z,18.23
2022-09-12T08:54:55.499Z,18.23
2022-09-12T08:55:55.590Z,18.23
2022-09-12T08:56:55.667Z,18.24
2022-09-12T08:57:55.608Z,18.23
2022-09-12T08:58:55.445Z,18.23
2022-09-12T08:59:55.552Z,18.23
2022-09-12T09:00:55.486Z,18.26
2022-09-12T09:01:55.532Z,18.26
2022-09-12T09:02:55.507Z,18.26
2022-09-12T09:03:55.436Z,18.28
2022-09-12T09:04:55.380Z,18.31
2022-09-12T09:05:55.366Z,18.36
2022-09-12T09:06:57.085Z,18.41
2022-09-12T09:07:55.490Z,18.45
2022-09-12T09:08:55.239Z,18.49
2022-09-12T09:09:55.331Z,18.51
2022-09-12T09:10:55.400Z,18.55
2022-09-12T09:11:55.265Z,18.58
2022-09-12T09:12:55.264Z,18.60
2022-09-12T09:13:55.338Z,18.63
2022-09-12T09:14:55.242Z,18.68
2022-09-12T09:15:55.479Z,18.71
2022-09-12T09:16:55.411Z,18.78
2022-09-12T09:17:55.159Z,18.82
2022-09-12T09:18:55.326Z,18.89
2022-09-12T09:19:55.292Z,19.00
2022-09-12T09:20:55.068Z,19.12
2022-09-12T09:21:55.284Z,19.23
2022-09-12T09:22:55.182Z,19.34
2022-09-12T09:23:55.354Z,19.49
2022-09-12T09:24:55.231Z,19.64
2022-09-12T09:25:55.085Z,19.72
2022-09-12T09:26:55.964Z,19.79
2022-09-12T09:27:55.239Z,19.92
2022-09-12T09:28:55.086Z,20.00
2022-09-12T09:29:55.166Z,19.99
2022-09-12T09:30:55.315Z,20.07
2022-09-12T09:31:55.312Z,20.08
2022-09-12T09:32:55.212Z,20.08
2022-09-12T09:33:55.792Z,20.14
2022-09-12T09:34:55.042Z,20.19
2022-09-12T09:35:54.927Z,20.26
2022-09-12T09:36:55.034Z,20.30
2022-09-12T09:37:58.599Z,20.33
2022-09-12T09:38:55.096Z,20.34
2022-09-12T09:39:55.273Z,20.37
2022-09-12T09:40:55.096Z,20.39
2022-09-12T09:41:55.235Z,20.34
2022-09-12T09:42:55.042Z,20.42
2022-09-12T09:43:54.862Z,20.42
2022-09-12T09:44:54.975Z,20.50
2022-09-12T09:45:55.011Z,20.53
2022-09-12T09:46:54.803Z,20.50
2022-09-12T09:47:54.770Z,20.53
2022-09-12T09:48:54.717Z,20.55
2022-09-12T09:49:54.892Z,20.58
2022-09-12T09:50:56.556Z,20.59
2022-09-12T09:51:57.671Z,20.64
2022-09-12T09:52:54.855Z,20.67
2022-09-12T09:53:54.699Z,20.68
2022-09-12T09:54:54.671Z,20.73
2022-09-12T09:55:54.761Z,20.85
2022-09-12T09:56:54.775Z,20.92
2022-09-12T09:57:54.816Z,21.01
2022-09-12T09:58:54.741Z,21.13
2022-09-12T09:59:54.849Z,21.22
2022-09-12T10:00:56.718Z,21.20
2022-09-12T10:01:54.775Z,21.25
2022-09-12T10:02:54.837Z,21.29
2022-09-12T10:03:54.658Z,21.37
2022-09-12T10:04:54.647Z,21.37
2022-09-12T10:05:54.712Z,21.33
2022-09-12T10:06:54.588Z,21.29
2022-09-12T10:07:54.704Z,21.37
2022-09-12T10:08:54.694Z,21.38
2022-09-12T10:09:54.878Z,21.43
2022-09-12T10:10:54.487Z,21.45
2022-09-12T10:11:54.783Z,21.45
2022-09-12T10:12:54.548Z,21.51
2022-09-12T10:13:54.506Z,21.58
2022-09-12T10:14:54.584Z,21.56
2022-09-12T10:15:54.874Z,21.56
2022-09-12T10:16:54.790Z,21.56
2022-09-12T10:17:54.686Z,21.54
2022-09-12T10:18:54.455Z,21.51
2022-09-12T10:20:10.904Z,21.47
2022-09-12T10:20:54.679Z,21.47
2022-09-12T10:21:54.638Z,21.51
2022-09-12T10:22:54.714Z,21.51
2022-09-12T10:23:54.701Z,21.54
2022-09-12T10:24:54.765Z,21.60
2022-09-12T10:25:54.518Z,21.62
2022-09-12T10:26:56.812Z,21.56
2022-09-12T10:27:54.850Z,21.59
2022-09-12T10:28:54.759Z,21.60
2022-09-12T10:29:54.591Z,21.62
2022-09-12T10:30:54.797Z,21.70
2022-09-12T10:31:54.594Z,21.85
2022-09-12T10:32:54.655Z,21.94
2022-09-12T10:33:54.607Z,22.04
2022-09-12T10:34:54.331Z,22.04
2022-09-12T10:35:54.347Z,22.07
2022-09-12T10:36:54.261Z,22.07
2022-09-12T10:37:54.323Z,22.04
2022-09-12T10:38:54.340Z,22.04
2022-09-12T10:39:54.325Z,22.07
2022-09-12T10:40:54.256Z,22.04
2022-09-12T10:41:54.202Z,22.08
2022-09-12T10:42:54.136Z,22.06
2022-09-12T10:43:54.283Z,22.03
2022-09-12T10:44:54.245Z,22.04
2022-09-12T10:45:54.283Z,22.16
2022-09-12T10:46:54.351Z,22.25
2022-09-12T10:47:54.198Z,22.36
2022-09-12T10:48:54.068Z,22.43
2022-09-12T10:49:54.256Z,22.53
2022-09-12T10:50:54.153Z,22.61
2022-09-12T10:51:54.106Z,22.70
2022-09-12T10:52:54.269Z,22.74
2022-09-12T10:53:54.001Z,22.78
2022-09-12T10:54:54.192Z,22.92
2022-09-12T10:55:54.165Z,23.07
2022-09-12T10:56:54.167Z,23.11
2022-09-12T10:57:53.999Z,23.14
2022-09-12T10:58:54.159Z,23.08
2022-09-12T10:59:54.187Z,23.10
2022-09-12T11:00:54.106Z,23.10
2022-09-12T11:01:54.179Z,23.13
2022-09-12T11:02:54.354Z,23.14
2022-09-12T11:03:54.300Z,23.21
2022-09-12T11:04:54.160Z,23.20
2022-09-12T11:05:54.048Z,23.11
2022-09-12T11:06:54.019Z,23.10
2022-09-12T11:07:53.982Z,23.13
2022-09-12T11:08:54.382Z,23.17
2022-09-12T11:09:54.309Z,23.26
2022-09-12T11:10:54.101Z,23.40
2022-09-12T11:11:54.139Z,23.52
2022-09-12T11:12:54.134Z,23.56
2022-09-12T11:13:54.051Z,23.58
2022-09-12T11:14:54.071Z,23.58
2022-09-12T11:15:54.060Z,23.54
2022-09-12T11:16:54.195Z,23.51
2022-09-12T11:17:53.805Z,23.40
2022-09-12T11:18:54.104Z,23.36
2022-09-12T11:19:53.850Z,23.29
2022-09-12T11:20:53.933Z,23.28
2022-09-12T11:21:54.075Z,23.29
2022-09-12T11:22:54.054Z,23.34
2022-09-12T11:23:54.124Z,23.36
2022-09-12T11:24:53.785Z,23.33
2022-09-12T11:25:53.686Z,23.33
2022-09-12T11:26:53.896Z,23.33
2022-09-12T11:27:53.932Z,23.28
2022-09-12T11:28:53.928Z,23.25
2022-09-12T11:29:54.033Z,23.21
2022-09-12T11:30:53.744Z,23.25
2022-09-12T11:31:53.702Z,23.28
2022-09-12T11:32:53.925Z,23.33
2022-09-12T11:33:56.806Z,23.29
2022-09-12T11:34:53.807Z,23.29
2022-09-12T11:35:55.607Z,23.26
2022-09-12T11:36:53.924Z,23.29
2022-09-12T11:37:53.739Z,23.39
2022-09-12T11:38:53.757Z,23.40
2022-09-12T11:39:55.833Z,23.44
2022-09-12T11:40:53.685Z,23.54
2022-09-12T11:41:53.802Z,23.59
2022-09-12T11:42:53.802Z,23.63
2022-09-12T11:43:53.836Z,23.70
2022-09-12T11:44:53.900Z,23.73
2022-09-12T11:45:54.163Z,23.76
2022-09-12T11:46:53.892Z,23.86
2022-09-12T11:47:53.695Z,23.96
2022-09-12T11:48:53.542Z,24.14
2022-09-12T11:49:53.837Z,24.22
2022-09-12T11:50:53.645Z,24.19
2022-09-12T11:51:53.944Z,24.21
2022-09-12T11:52:53.727Z,24.09
2022-09-12T11:53:53.646Z,24.11
2022-09-12T11:54:54.133Z,24.10
2022-09-12T11:55:53.308Z,24.13
2022-09-12T11:56:53.566Z,24.16
2022-09-12T11:57:53.671Z,24.29
2022-09-12T11:58:54.204Z,24.36
2022-09-12T11:59:53.546Z,24.34
2022-09-12T12:00:53.506Z,24.41
2022-09-12T12:01:53.523Z,24.51
2022-09-12T12:02:54.330Z,24.62
2022-09-12T12:03:54.225Z,24.68
2022-09-12T12:04:53.560Z,24.75
2022-09-12T12:05:53.619Z,25.01
2022-09-12T12:06:54.557Z,24.99
2022-09-12T12:07:53.364Z,25.07
2022-09-12T12:08:53.365Z,25.12
2022-09-12T12:09:53.468Z,25.09
2022-09-12T12:10:53.389Z,25.07
2022-09-12T12:11:53.647Z,25.03
2022-09-12T12:12:53.273Z,25.14
2022-09-12T12:13:53.184Z,25.12
2022-09-12T12:14:53.306Z,25.15
2022-09-12T12:15:53.750Z,25.14
2022-09-12T12:16:53.284Z,25.24
2022-09-12T12:17:53.289Z,25.31
2022-09-12T12:18:53.308Z,25.37
2022-09-12T12:19:54.026Z,25.34
2022-09-12T12:20:53.404Z,25.26
2022-09-12T12:21:53.361Z,25.15
2022-09-12T12:22:53.021Z,25.12
2022-09-12T12:23:53.042Z,25.01
2022-09-12T12:24:53.043Z,24.96
2022-09-12T12:25:53.065Z,24.93
2022-09-12T12:26:53.775Z,24.97
2022-09-12T12:27:52.999Z,25.07
2022-09-12T12:28:59.052Z,25.36
2022-09-12T12:29:53.234Z,25.78
2022-09-12T12:30:53.014Z,26.22
2022-09-12T12:31:52.907Z,26.70
2022-09-12T12:32:52.895Z,27.08
2022-09-12T12:33:52.968Z,27.30
2022-09-12T12:34:52.878Z,27.52
2022-09-12T12:35:52.886Z,27.73
2022-09-12T12:36:52.844Z,27.90
2022-09-12T12:37:52.845Z,28.19
2022-09-12T12:38:52.830Z,28.31
2022-09-12T12:39:52.959Z,28.80
2022-09-12T12:40:52.832Z,28.97
2022-09-12T12:41:52.789Z,29.27
2022-09-12T12:42:52.775Z,29.55
2022-09-12T12:43:52.773Z,29.50
2022-09-12T12:44:52.756Z,29.53
2022-09-12T12:45:52.874Z,29.52
2022-09-12T12:46:52.777Z,29.42
2022-09-12T12:47:52.753Z,29.37
2022-09-12T12:48:52.707Z,29.50
2022-09-12T12:49:52.725Z,29.68
2022-09-12T12:50:52.702Z,29.89
2022-09-12T12:51:52.714Z,30.17